Time;durP1;ratioP1;P1;durP2;ratioP2;P2;SDS_P1;SDS_P2;PMS_P1;PMS_P2;Temp;Humidity;BMP_temperature;BMP_pressure;BME280_temperature;BME280_humidity;BME280_pressure;Samples;Min_cycle;Max_cycle;Signal;HPM_P1;HPM_P2
2021/07/12 00:01:20;;;;;;;10.32;6.18;;;18.10;99.90;;;16.94;100.00;102130.09;4954274;28;20041;-76
2021/07/12 00:03:46;;;;;;;9.50;6.47;;;18.00;99.90;;;16.94;100.00;102116.81;4965421;28;20031;-76
2021/07/12 00:06:12;;;;;;;8.63;5.70;;;18.00;99.90;;;16.94;100.00;102039.66;4979012;28;20352;-76
2021/07/12 00:08:38;;;;;;;7.90;5.97;;;18.00;99.90;;;16.95;100.00;102032.50;4913999;28;20031;-76
2021/07/12 00:11:11;;;;;;;8.63;5.85;;;18.00;99.90;;;16.91;100.00;102015.88;4971751;28;20200;-76
2021/07/12 00:13:37;;;;;;;9.98;6.07;;;17.90;99.90;;;16.85;100.00;102000.22;4912770;28;20490;-76
2021/07/12 00:16:04;;;;;;;13.88;5.55;;;17.90;99.90;;;16.84;100.00;101998.50;4887003;28;20699;-76
2021/07/12 00:18:31;;;;;;;10.43;6.13;;;17.90;99.90;;;16.92;100.00;102165.72;4992269;28;20038;-76
2021/07/12 00:20:57;;;;;;;10.30;6.75;;;18.00;99.90;;;16.92;100.00;102041.53;4975684;28;20035;-75
2021/07/12 00:23:23;;;;;;;10.52;5.93;;;18.00;99.90;;;16.87;100.00;102006.34;4937989;28;20056;-76
2021/07/12 00:25:50;;;;;;;13.73;6.47;;;18.00;99.90;;;16.96;100.00;102019.13;4912479;28;20061;-76
2021/07/12 00:28:16;;;;;;;10.05;6.38;;;18.00;99.90;;;16.98;100.00;102027.06;4951320;28;20024;-76
2021/07/12 00:30:41;;;;;;;12.18;6.38;;;18.10;99.90;;;17.02;100.00;102000.19;4966202;28;20488;-76
2021/07/12 00:33:10;;;;;;;13.27;6.05;;;18.10;99.90;;;17.02;100.00;102162.50;5004958;28;20039;-76
2021/07/12 00:35:36;;;;;;;10.27;5.85;;;18.10;99.90;;;17.01;100.00;102102.22;4992751;28;20052;-75
2021/07/12 00:38:05;;;;;;;10.05;6.60;;;18.10;99.90;;;16.99;100.00;102386.16;4993023;28;20489;-76
2021/07/12 00:40:31;;;;;;;10.65;6.78;;;18.10;99.90;;;17.01;100.00;102104.88;4956583;28;20139;-76
2021/07/12 00:42:57;;;;;;;13.38;6.60;;;18.10;99.90;;;17.00;100.00;102097.88;4911194;28;20032;-76
2021/07/12 00:45:27;;;;;;;11.52;6.28;;;18.00;99.90;;;16.98;100.00;102056.31;4886091;28;20031;-76
2021/07/12 00:47:55;;;;;;;13.10;6.57;;;18.10;99.90;;;17.04;100.00;102047.13;4874745;28;20455;-76
2021/07/12 00:50:24;;;;;;;9.68;6.60;;;18.10;99.90;;;17.07;100.00;102033.69;4935436;28;20040;-76
2021/07/12 00:52:53;;;;;;;12.32;6.55;;;18.00;99.90;;;17.00;100.00;102034.00;4876080;28;20094;-76
2021/07/12 00:55:36;;;;;;;12.15;6.63;;;18.10;99.90;;;17.05;100.00;102169.47;4879474;28;20027;-75
2021/07/12 00:58:08;;;;;;;10.18;6.15;;;18.10;99.90;;;17.08;100.00;102309.50;4901595;28;20028;-76
2021/07/12 01:00:35;;;;;;;9.82;6.85;;;18.10;99.90;;;17.02;100.00;102221.03;4924065;28;20040;-76
2021/07/12 01:03:04;;;;;;;12.35;7.18;;;18.10;99.90;;;17.08;100.00;102189.72;4883994;28;20030;-76
2021/07/12 01:05:32;;;;;;;10.43;6.75;;;18.10;99.90;;;17.11;100.00;102157.66;4959738;28;20023;-76
2021/07/12 01:07:59;;;;;;;10.07;6.07;;;18.10;99.90;;;17.06;100.00;102151.69;4933413;28;20052;-76
2021/07/12 01:10:28;;;;;;;11.38;6.68;;;18.10;99.90;;;16.97;100.00;102124.59;5000497;28;20033;-76
2021/07/12 01:13:33;;;;;;;8.82;6.07;;;18.00;99.90;;;16.90;100.00;102160.47;5001303;28;20075;-76
2021/07/12 01:16:31;;;;;;;11.98;6.63;;;18.00;99.90;;;16.89;100.00;102133.91;4917430;28;20101;-76
2021/07/12 01:19:22;;;;;;;11.20;6.18;;;17.90;99.90;;;16.81;100.00;102091.78;4910437;28;20139;-76
2021/07/12 01:22:22;;;;;;;11.88;6.68;;;17.90;99.90;;;16.87;100.00;102086.13;4900706;28;20484;-76
2021/07/12 01:25:34;;;;;;;12.40;6.80;;;17.90;99.90;;;16.89;100.00;102094.03;4885043;28;20039;-75
2021/07/12 01:28:51;;;;;;;10.35;6.40;;;17.90;99.90;;;16.87;100.00;102061.31;4909373;28;20028;-76
2021/07/12 01:31:56;;;;;;;14.70;7.40;;;17.90;99.90;;;16.87;100.00;102038.25;4905144;28;20073;-76
2021/07/12 01:35:05;;;;;;;9.45;6.55;;;17.90;99.90;;;16.84;100.00;102099.56;4906566;28;20036;-76
2021/07/12 01:37:58;;;;;;;10.02;6.53;;;17.90;99.90;;;16.84;100.00;102024.25;4909011;28;20032;-76
2021/07/12 01:41:08;;;;;;;12.35;6.78;;;17.90;99.90;;;16.85;100.00;102029.50;4997942;28;20071;-76
2021/07/12 01:43:48;;;;;;;9.95;6.07;;;17.90;99.90;;;16.77;100.00;101999.75;4997984;28;20030;-76
2021/07/12 01:46:29;;;;;;;13.88;7.50;;;17.80;99.90;;;16.78;100.00;101989.03;4911177;28;20051;-76
2021/07/12 01:49:42;;;;;;;11.30;7.07;;;17.80;99.90;;;16.71;100.00;102082.50;4962468;28;20050;-76
2021/07/12 01:53:06;;;;;;;11.05;7.15;;;17.70;99.90;;;16.63;100.00;102098.84;4910004;28;20502;-76
2021/07/12 01:56:13;;;;;;;10.95;6.18;;;17.70;99.90;;;16.56;100.00;102081.47;4931202;28;20024;-75
2021/07/12 01:58:52;;;;;;;10.80;6.63;;;17.50;99.90;;;16.40;100.00;102092.03;4969948;28;20044;-76
2021/07/12 02:01:24;;;;;;;8.35;6.28;;;17.50;99.90;;;16.32;100.00;102059.63;4923098;28;20046;-76
2021/07/12 02:03:54;;;;;;;13.18;6.85;;;17.40;99.90;;;16.20;100.00;102058.47;4973105;28;20482;-76
2021/07/12 02:06:22;;;;;;;9.38;6.65;;;17.30;99.90;;;16.11;100.00;102088.13;4902865;28;20086;-76
2021/07/12 02:08:51;;;;;;;9.43;6.90;;;17.20;99.90;;;16.08;100.00;102117.50;4914201;28;20553;-76
2021/07/12 02:11:18;;;;;;;10.57;7.15;;;17.20;99.90;;;16.06;100.00;103937.91;4926427;28;20380;-76
2021/07/12 02:13:50;;;;;;;8.75;6.72;;;17.20;99.90;;;16.08;100.00;103213.16;4901835;28;20043;-76
2021/07/12 02:16:20;;;;;;;13.90;7.25;;;17.20;99.90;;;16.03;100.00;103066.28;4902752;28;20502;-76
2021/07/12 02:18:47;;;;;;;12.88;7.03;;;17.10;99.90;;;16.03;100.00;102765.16;4909592;28;20598;-76
2021/07/12 02:21:15;;;;;;;12.00;6.70;;;17.20;99.90;;;16.04;100.00;102852.75;4984123;28;20041;-76
2021/07/12 02:23:44;;;;;;;11.85;7.00;;;17.10;99.90;;;16.04;100.00;102698.66;4994199;28;20041;-76
2021/07/12 02:26:14;;;;;;;10.00;6.97;;;17.10;99.90;;;16.03;100.00;102678.34;4966338;28;20014;-76
2021/07/12 02:28:48;;;;;;;14.15;7.10;;;17.20;99.90;;;16.13;100.00;102631.00;4930819;28;20525;-76
2021/07/12 02:31:16;;;;;;;12.40;7.28;;;17.20;99.90;;;16.13;100.00;102607.97;4971478;28;20041;-76
2021/07/12 02:33:43;;;;;;;10.77;7.40;;;17.30;99.90;;;16.14;100.00;102450.22;4992630;28;20030;-76
2021/07/12 02:36:10;;;;;;;10.20;7.50;;;17.30;99.90;;;16.19;100.00;102519.97;4998737;28;20101;-76
2021/07/12 02:38:39;;;;;;;9.95;7.00;;;17.30;99.90;;;16.28;100.00;102568.38;4946633;28;20035;-76
2021/07/12 02:41:06;;;;;;;12.52;7.45;;;17.30;99.90;;;16.22;100.00;102356.00;4917314;28;20515;-76
2021/07/12 02:43:37;;;;;;;10.43;7.05;;;17.30;99.90;;;16.19;100.00;102327.78;4901742;28;20077;-77
2021/07/12 02:46:06;;;;;;;11.15;6.95;;;17.30;99.90;;;16.14;100.00;102320.03;4906075;28;20025;-76
2021/07/12 02:48:33;;;;;;;11.50;7.03;;;16.50;99.90;;;16.09;100.00;102252.94;4882370;28;20032;-76
2021/07/12 02:51:05;;;;;;;9.95;6.88;;;17.10;99.90;;;16.01;100.00;102238.28;4961086;28;20046;-76
2021/07/12 02:53:38;;;;;;;11.40;6.90;;;17.10;99.90;;;15.96;100.00;102198.63;4893048;28;20032;-76
2021/07/12 02:56:04;;;;;;;11.98;6.72;;;17.10;99.90;;;15.95;100.00;102205.72;5001507;28;20485;-76
2021/07/12 02:58:33;;;;;;;11.93;6.40;;;17.10;99.90;;;16.06;100.00;102189.31;5004218;28;20038;-76
2021/07/12 03:01:02;;;;;;;8.90;6.88;;;17.20;99.90;;;16.06;100.00;102170.69;4945108;28;20046;-76
2021/07/12 03:03:28;;;;;;;12.15;7.32;;;17.10;99.90;;;16.01;100.00;102186.00;4970667;28;20156;-76
2021/07/12 03:06:06;;;;;;;9.63;7.30;;;17.10;99.90;;;15.98;100.00;102187.00;4948219;28;20034;-76
2021/07/12 03:08:58;;;;;;;19.10;7.45;;;17.10;99.90;;;16.03;100.00;102189.47;4967281;28;20073;-76
2021/07/12 03:11:34;;;;;;;8.35;6.32;;;17.20;99.90;;;16.08;100.00;102218.47;4915347;28;20592;-76
2021/07/12 03:14:31;;;;;;;9.70;7.00;;;17.20;99.90;;;16.10;100.00;102313.13;4972680;28;20396;-76
2021/07/12 03:17:00;;;;;;;10.43;6.53;;;17.30;99.90;;;16.13;100.00;102354.63;4895412;28;20024;-76
2021/07/12 03:19:32;;;;;;;11.27;6.55;;;17.30;99.90;;;16.13;100.00;102306.78;4904105;28;20143;-76
2021/07/12 03:22:00;;;;;;;10.48;6.45;;;17.30;99.90;;;16.14;100.00;102369.66;4977443;28;20065;-76
2021/07/12 03:24:30;;;;;;;10.75;6.43;;;17.30;99.90;;;16.15;100.00;102347.44;4971530;28;20036;-76
2021/07/12 03:26:59;;;;;;;12.55;6.47;;;17.30;99.90;;;16.17;100.00;102309.22;4924427;28;20031;-76
2021/07/12 03:29:30;;;;;;;10.38;6.85;;;17.30;99.90;;;16.18;100.00;102350.00;4887319;28;20070;-76
2021/07/12 03:31:59;;;;;;;9.60;6.50;;;17.40;99.90;;;16.20;100.00;102348.97;4971664;28;20044;-76
2021/07/12 03:34:29;;;;;;;8.68;6.53;;;17.40;99.90;;;16.23;100.00;102363.06;4964590;28;20025;-76
2021/07/12 03:37:00;;;;;;;11.90;7.38;;;17.40;99.90;;;16.32;100.00;102383.91;4986774;28;20031;-76
2021/07/12 03:39:29;;;;;;;11.05;6.68;;;17.50;99.90;;;16.40;100.00;102381.78;4984130;28;20375;-76
2021/07/12 03:41:58;;;;;;;8.75;6.53;;;17.50;99.90;;;16.46;100.00;102441.78;4886196;28;20503;-76
2021/07/12 03:44:25;;;;;;;9.73;6.38;;;17.60;99.90;;;16.49;100.00;102335.31;4959863;28;20029;-77
2021/07/12 03:46:53;;;;;;;7.47;6.13;;;17.70;99.90;;;16.53;100.00;102398.06;4892503;28;20065;-76
2021/07/12 03:49:19;;;;;;;9.23;6.40;;;17.90;99.90;;;16.79;100.00;102434.09;4870898;28;20181;-76
2021/07/12 03:51:50;;;;;;;9.35;6.40;;;18.40;99.90;;;17.33;100.00;102395.19;4983105;28;20037;-76
2021/07/12 03:54:20;;;;;;;10.70;5.90;;;19.00;99.90;;;17.80;100.00;102383.13;4951984;28;20035;-76
2021/07/12 03:56:46;;;;;;;6.32;5.32;;;19.60;99.90;;;18.25;100.00;102365.72;4897690;28;20085;-76
2021/07/12 03:59:12;;;;;;;6.93;4.85;;;20.10;99.90;;;18.70;99.11;102341.97;4977266;28;20118;-76
2021/07/12 04:01:38;;;;;;;8.23;5.47;;;20.60;99.90;;;19.10;96.88;102342.44;4880410;28;20519;-76
2021/07/12 04:04:04;;;;;;;7.00;4.75;;;21.10;99.90;;;19.54;95.61;102421.81;4904111;28;20110;-76
2021/07/12 04:06:30;;;;;;;6.38;4.30;;;21.70;99.90;;;19.96;92.68;102744.66;4971418;28;20036;-76
2021/07/12 04:08:58;;;;;;;6.55;3.58;;;22.40;99.90;;;20.68;91.78;102459.59;4955652;28;20030;-76
2021/07/12 04:11:34;;;;;;;10.85;4.22;;;23.10;99.90;;;21.01;86.47;102380.75;4895101;28;20553;-76
2021/07/12 04:14:04;;;;;;;6.63;3.90;;;23.40;99.90;;;21.16;86.32;102348.59;4971609;28;20063;-76
2021/07/12 04:16:30;;;;;;;5.82;4.05;;;23.30;99.90;;;20.74;87.07;102275.50;4888097;28;20023;-76
2021/07/12 04:18:57;;;;;;;6.32;3.90;;;22.70;99.90;;;20.62;88.67;102277.97;4891621;28;20059;-76
2021/07/12 04:21:23;;;;;;;6.13;3.75;;;22.50;99.90;;;20.33;89.44;102239.72;4892460;28;20447;-76
2021/07/12 04:23:49;;;;;;;6.65;3.80;;;22.10;99.90;;;19.90;90.99;102206.81;4987551;28;20024;-76
2021/07/12 04:26:15;;;;;;;6.82;4.20;;;21.40;99.90;;;19.33;94.04;102173.72;4935504;28;20090;-76
2021/07/12 04:28:41;;;;;;;5.88;4.40;;;21.00;99.90;;;19.11;95.87;102270.25;4938278;28;20504;-76
2021/07/12 04:31:07;;;;;;;7.32;4.43;;;20.60;99.90;;;18.97;97.21;102252.38;4965608;28;21027;-76
2021/07/12 04:33:33;;;;;;;5.10;4.43;;;20.40;99.90;;;18.72;98.45;102204.00;4990078;28;20047;-76
2021/07/12 04:35:59;;;;;;;8.10;4.43;;;20.10;99.90;;;18.53;100.00;102191.72;4903147;28;20025;-76
2021/07/12 04:38:25;;;;;;;7.20;4.53;;;20.20;99.90;;;18.82;99.87;102210.56;4990754;28;20082;-76
2021/07/12 04:40:51;;;;;;;9.02;4.55;;;20.60;99.90;;;19.37;97.44;102228.69;4897443;28;20058;-76
2021/07/12 04:43:17;;;;;;;10.52;4.70;;;20.80;99.90;;;19.51;95.78;102225.16;5007443;28;20040;-76
2021/07/12 04:45:43;;;;;;;5.68;4.20;;;21.00;99.90;;;20.15;93.77;102273.84;4877409;28;20065;-76
2021/07/12 04:48:09;;;;;;;6.03;4.30;;;21.60;99.90;;;20.50;92.07;102265.38;4889663;28;20447;-76
2021/07/12 04:50:35;;;;;;;5.80;3.72;;;22.70;99.90;;;21.43;88.65;102274.47;4873010;28;20055;-77
2021/07/12 04:53:01;;;;;;;8.23;3.72;;;23.80;99.90;;;22.39;83.70;102326.84;4908358;28;20482;-77
2021/07/12 04:55:29;;;;;;;5.13;3.75;;;24.70;99.90;;;23.08;80.61;102873.44;4970928;28;20025;-76
2021/07/12 04:57:55;;;;;;;8.10;3.40;;;25.40;99.90;;;24.21;74.45;102689.06;4925770;28;20967;-77
2021/07/12 05:00:21;;;;;;;4.60;3.40;;;25.80;99.90;;;24.48;72.79;103073.94;4913991;28;20102;-76
2021/07/12 05:02:47;;;;;;;6.82;3.63;;;25.50;99.90;;;23.89;75.90;102831.31;4913559;28;20388;-76
2021/07/12 05:05:14;;;;;;;4.03;2.97;;;25.60;99.90;;;23.97;75.78;102857.66;4896138;28;20028;-77
2021/07/12 05:07:40;;;;;;;5.28;3.13;;;26.20;99.90;;;24.65;74.24;102730.69;4993219;28;20033;-76
2021/07/12 05:10:08;;;;;;;8.52;3.28;;;27.00;99.90;;;25.10;71.43;102539.50;4968415;28;20021;-76
2021/07/12 05:12:34;;;;;;;3.17;2.88;;;27.50;99.90;;;25.46;70.65;102555.53;4902401;28;20023;-77
2021/07/12 05:15:00;;;;;;;4.80;3.45;;;27.70;99.90;;;25.26;69.08;102447.47;4970834;28;20033;-77
2021/07/12 05:17:26;;;;;;;3.38;2.80;;;27.00;99.90;;;25.51;68.96;102319.56;4925048;28;20601;-77
2021/07/12 05:19:52;;;;;;;4.95;2.80;;;26.50;99.90;;;24.75;71.30;102209.16;4894037;28;20036;-77
2021/07/12 05:22:22;;;;;;;5.53;3.50;;;25.70;99.90;;;23.68;75.36;102116.47;4902617;28;20035;-76
2021/07/12 05:24:48;;;;;;;5.30;3.55;;;24.50;99.90;;;22.47;81.01;102054.25;4979729;28;20027;-76
2021/07/12 05:27:16;;;;;;;7.15;3.78;;;23.60;99.90;;;22.10;83.06;102109.78;4892372;28;20048;-76
2021/07/12 05:29:42;;;;;;;4.82;3.60;;;23.30;99.90;;;21.87;84.88;102090.84;4871452;28;20031;-76
2021/07/12 05:32:08;;;;;;;3.92;3.53;;;23.10;99.90;;;20.94;88.83;102020.69;4886241;28;20117;-76
2021/07/12 05:34:34;;;;;;;4.63;3.78;;;22.70;99.90;;;21.27;89.38;102051.41;4924334;28;20111;-77
2021/07/12 05:37:02;;;;;;;8.98;3.75;;;23.10;99.90;;;22.01;85.44;102113.13;4889929;28;20078;-76
2021/07/12 05:39:31;;;;;;;5.00;3.55;;;23.60;99.90;;;22.56;84.46;102127.00;4903340;28;20082;-76
2021/07/12 05:41:56;;;;;;;5.35;3.97;;;24.20;99.90;;;23.18;82.07;102174.22;4869160;28;20579;-77
2021/07/12 05:44:22;;;;;;;4.07;3.65;;;24.90;99.90;;;23.68;78.63;102225.88;4922631;28;20112;-76
2021/07/12 05:46:48;;;;;;;6.30;3.30;;;26.20;99.90;;;24.95;74.79;102228.16;4962802;28;20040;-76
2021/07/12 05:49:15;;;;;;;3.75;3.10;;;27.10;99.90;;;25.56;69.36;102170.84;4901873;28;20603;-77
2021/07/12 05:51:41;;;;;;;5.28;3.50;;;27.00;99.90;;;25.72;67.53;102163.13;4956390;28;20075;-77
2021/07/12 05:54:09;;;;;;;3.78;2.83;;;27.10;99.90;;;25.00;70.30;102075.03;4872204;28;20042;-76
2021/07/12 05:56:35;;;;;;;5.00;3.08;;;27.00;99.90;;;25.91;66.12;102094.88;4933274;28;20028;-76
2021/07/12 05:59:01;;;;;;;4.15;2.95;;;26.60;99.90;;;24.59;72.84;101995.97;5009756;28;20111;-76
2021/07/12 06:01:27;;;;;;;4.70;3.38;;;25.70;99.90;;;23.75;74.73;101924.09;4992240;28;20031;-77
2021/07/12 06:03:53;;;;;;;4.63;3.30;;;24.50;99.90;;;22.67;80.01;101877.38;4893754;28;20055;-76
2021/07/12 06:06:19;;;;;;;6.25;3.53;;;23.60;99.90;;;21.75;83.95;101834.44;5006590;28;20022;-76
2021/07/12 06:08:45;;;;;;;6.10;3.50;;;23.10;99.90;;;21.23;86.50;101843.66;5002096;28;20048;-76
2021/07/12 06:11:10;;;;;;;6.45;3.70;;;22.60;99.90;;;21.12;87.87;101932.81;4992829;28;22433;-76
2021/07/12 06:13:37;;;;;;;5.63;3.70;;;22.40;99.90;;;21.00;89.05;101929.22;4992154;28;20113;-77
2021/07/12 06:16:04;;;;;;;5.38;3.90;;;22.10;99.90;;;20.79;90.93;101926.25;4957982;28;20059;-76
2021/07/12 06:18:30;;;;;;;6.50;4.22;;;22.00;99.90;;;20.87;89.43;101931.06;4892726;28;20151;-77
2021/07/12 06:20:56;;;;;;;8.40;4.32;;;21.90;99.90;;;20.67;90.55;101909.25;4902960;28;20101;-76
2021/07/12 06:23:22;;;;;;;7.60;4.60;;;21.80;99.90;;;20.79;90.72;101938.78;4910073;28;20432;-76
2021/07/12 06:25:48;;;;;;;6.50;4.03;;;21.90;99.90;;;20.85;91.11;101936.50;4891682;28;20528;-76
2021/07/12 06:28:14;;;;;;;5.53;4.10;;;21.80;99.90;;;20.57;90.74;101953.66;4885512;28;20602;-76
2021/07/12 06:30:40;;;;;;;7.28;4.50;;;21.70;99.90;;;20.61;91.09;101909.66;4905495;28;20051;-76
2021/07/12 06:33:05;;;;;;;5.65;4.40;;;21.70;99.90;;;20.71;91.97;101927.75;4976827;28;20025;-76
2021/07/12 06:35:31;;;;;;;6.03;4.30;;;21.70;99.90;;;20.87;91.33;101923.03;4959569;28;20104;-76
2021/07/12 06:37:57;;;;;;;5.78;3.70;;;22.00;99.90;;;21.24;88.28;101949.84;4981606;28;20034;-76
2021/07/12 06:40:23;;;;;;;4.00;3.60;;;22.10;99.90;;;21.05;88.90;101934.22;4964648;28;20040;-76
2021/07/12 06:42:50;;;;;;;8.15;3.70;;;22.00;99.90;;;21.02;89.29;101887.13;4897361;28;20036;-76
2021/07/12 06:45:16;;;;;;;8.82;4.07;;;22.10;99.90;;;20.83;87.73;101843.91;4976883;28;20031;-76
2021/07/12 06:47:42;;;;;;;5.93;4.13;;;22.00;99.90;;;20.95;89.86;101851.06;4894349;28;20488;-76
2021/07/12 06:50:08;;;;;;;5.25;3.72;;;22.30;99.90;;;21.35;87.31;101880.25;4888673;28;20046;-76
2021/07/12 06:52:34;;;;;;;5.70;3.65;;;22.50;99.90;;;21.26;87.42;101867.56;4905721;28;20040;-76
2021/07/12 06:55:00;;;;;;;8.02;3.80;;;22.50;99.90;;;21.69;86.39;101940.28;4933619;28;20032;-76
2021/07/12 06:57:26;;;;;;;4.10;3.10;;;22.80;99.90;;;21.64;85.10;101879.94;4912019;28;20488;-76
2021/07/12 06:59:52;;;;;;;4.88;3.47;;;22.80;99.90;;;21.77;83.26;101886.09;4879654;28;20094;-76
2021/07/12 07:02:18;;;;;;;7.45;2.97;;;22.90;99.90;;;21.87;83.93;101870.16;4964422;28;20056;-76
2021/07/12 07:04:44;;;;;;;4.38;3.50;;;23.30;99.90;;;22.40;81.33;101885.78;4979340;28;20064;-77
2021/07/12 07:07:13;;;;;;;4.50;3.30;;;23.60;99.90;;;22.63;79.48;101898.22;4884470;28;20036;-76
2021/07/12 07:09:39;;;;;;;3.92;3.25;;;24.20;99.90;;;23.44;77.75;101936.50;4951286;28;20506;-76
2021/07/12 07:12:05;;;;;;;4.18;2.97;;;24.80;99.90;;;23.83;72.97;101928.00;4944958;28;20474;-77
2021/07/12 07:14:31;;;;;;;2.75;2.40;;;25.10;99.90;;;24.34;74.71;101968.44;4909801;28;20028;-76
2021/07/12 07:16:57;;;;;;;10.57;3.35;;;25.90;99.90;;;25.75;67.52;102017.16;5007690;28;20450;-76
2021/07/12 07:19:25;;;;;;;3.72;2.63;;;26.40;99.90;;;25.97;64.25;102017.94;5020364;28;20049;-76
2021/07/12 07:21:53;;;;;;;4.45;2.65;;;26.90;99.90;;;25.88;63.79;101989.06;4972233;28;20075;-77
2021/07/12 07:24:20;;;;;;;4.28;2.72;;;26.70;99.90;;;25.54;66.79;101965.19;4933746;28;20022;-76
2021/07/12 07:26:47;;;;;;;4.28;2.70;;;26.50;99.90;;;24.89;67.26;101870.38;4980761;28;20027;-77
2021/07/12 07:29:13;;;;;;;4.25;2.30;;;26.00;99.90;;;24.93;68.50;101880.75;4920159;28;21568;-76
2021/07/12 07:31:39;;;;;;;4.82;2.65;;;25.60;99.90;;;23.99;70.36;101819.94;4981585;28;20481;-76
2021/07/12 07:34:08;;;;;;;4.15;2.30;;;25.10;99.90;;;24.15;72.24;101831.94;4907466;28;20114;-76
2021/07/12 07:36:34;;;;;;;3.50;2.67;;;25.40;99.90;;;24.57;71.77;101860.63;4971257;28;20032;-76
2021/07/12 07:39:00;;;;;;;3.80;2.60;;;25.70;99.90;;;24.96;69.66;101871.53;4925985;28;20043;-76
2021/07/12 07:41:26;;;;;;;4.30;2.50;;;25.90;99.90;;;25.39;68.00;105789.44;4881392;28;20126;-76
2021/07/12 07:43:54;;;;;;;4.05;2.53;;;26.10;99.90;;;25.85;68.68;103226.03;4896324;28;20526;-76
2021/07/12 07:46:23;;;;;;;3.63;2.28;;;27.30;99.90;;;27.27;62.80;102793.53;4993212;28;20477;-76
2021/07/12 07:48:49;;;;;;;3.28;2.50;;;28.30;99.90;;;27.53;59.78;102673.09;4931157;28;20239;-77
2021/07/12 07:51:15;;;;;;;3.65;2.28;;;28.60;99.90;;;28.35;57.89;102641.41;4989076;28;20036;-76
2021/07/12 07:53:41;;;;;;;2.92;2.25;;;28.90;99.90;;;28.37;60.23;102495.81;4966992;28;20026;-76
2021/07/12 07:56:10;;;;;;;2.50;2.30;;;29.30;99.90;;;28.94;57.74;102396.34;4953306;28;20038;-76
2021/07/12 07:58:36;;;;;;;3.40;2.65;;;28.90;99.90;;;27.72;59.51;102216.84;4892530;28;20515;-76
2021/07/12 08:01:04;;;;;;;4.13;2.40;;;28.80;99.90;;;28.01;58.80;102163.47;4927816;28;20147;-76
2021/07/12 08:03:30;;;;;;;3.90;2.58;;;28.60;99.90;;;26.90;63.23;101965.06;4982452;28;20028;-76
2021/07/12 08:05:56;;;;;;;3.00;2.70;;;28.20;99.90;;;26.35;64.69;102011.69;4981340;28;20038;-76
2021/07/12 08:08:22;;;;;;;3.85;2.65;;;26.50;99.90;;;25.12;68.46;101923.06;4909594;28;20020;-76
2021/07/12 08:10:48;;;;;;;5.10;2.88;;;25.50;99.90;;;23.71;74.58;101833.91;4912659;28;20046;-75
2021/07/12 08:13:14;;;;;;;6.47;3.20;;;24.60;99.90;;;22.66;76.98;101769.16;4905674;28;20505;-76
2021/07/12 08:15:49;;;;;;;5.50;3.17;;;23.80;99.90;;;22.37;80.30;101767.97;4930098;28;20032;-76
2021/07/12 08:18:15;;;;;;;5.07;3.13;;;23.70;99.90;;;22.62;80.30;101782.94;4972802;28;20031;-76
2021/07/12 08:20:45;;;;;;;3.53;3.20;;;23.60;99.90;;;22.43;81.18;101764.78;4903055;28;20450;-76
2021/07/12 08:23:13;;;;;;;3.13;2.65;;;23.60;99.90;;;22.63;80.62;101926.91;4908000;28;20042;-76
2021/07/12 08:25:41;;;;;;;4.20;3.20;;;23.40;99.90;;;22.31;81.56;101882.84;4969273;28;20038;-76
2021/07/12 08:28:07;;;;;;;4.25;3.00;;;23.30;99.90;;;22.52;81.38;101876.75;4957683;28;20022;-76
2021/07/12 08:30:34;;;;;;;6.32;3.50;;;23.50;99.90;;;22.64;80.68;101873.09;4891872;28;20044;-76
2021/07/12 08:33:00;;;;;;;6.50;2.92;;;23.70;99.90;;;22.90;79.16;101875.53;4910518;28;20031;-76
2021/07/12 08:35:26;;;;;;;4.70;3.03;;;23.90;99.90;;;23.32;78.02;101892.69;4853587;28;20043;-76
2021/07/12 08:37:52;;;;;;;4.13;2.95;;;24.00;99.90;;;22.68;79.60;101802.09;4976949;28;20036;-76
2021/07/12 08:40:23;;;;;;;3.88;3.08;;;23.80;99.90;;;22.93;79.31;101832.31;5001455;28;20038;-76
2021/07/12 08:42:53;;;;;;;5.72;3.25;;;23.70;99.90;;;22.79;82.36;101820.00;4907912;28;20104;-76
2021/07/12 08:45:20;;;;;;;4.30;3.42;;;23.70;99.90;;;22.79;80.99;101809.28;4959952;28;20043;-76
2021/07/12 08:47:46;;;;;;;7.20;3.30;;;;;;;23.08;80.16;101847.19;4908512;28;20124;-75
2021/07/12 08:50:13;;;;;;;5.55;3.22;;;24.10;99.90;;;23.31;80.20;101847.16;4911758;28;20074;-76
2021/07/12 08:52:46;;;;;;;5.85;3.55;;;24.20;99.90;;;23.43;81.70;101856.84;4891808;28;20036;-76
2021/07/12 08:55:13;;;;;;;10.10;3.50;;;24.90;99.90;;;24.49;78.30;101925.06;4878517;28;20107;-76
2021/07/12 08:57:40;;;;;;;5.18;3.30;;;25.30;99.90;;;24.53;74.67;101939.97;4901402;28;20035;-76
2021/07/12 09:00:09;;;;;;;5.57;2.83;;;25.60;99.90;;;24.68;75.14;101921.63;4902331;28;20044;-76
2021/07/12 09:02:52;;;;;;;4.30;3.03;;;25.80;99.90;;;24.58;75.25;101875.81;4968314;28;20043;-76
2021/07/12 09:05:34;;;;;;;3.40;3.00;;;25.80;99.90;;;24.59;73.77;101860.50;4934932;28;20043;-76
2021/07/12 09:08:00;;;;;;;7.78;2.88;;;25.60;99.90;;;24.74;71.92;101859.97;4977524;28;20040;-75
2021/07/12 09:10:44;;;;;;;8.77;2.80;;;25.40;99.90;;;24.14;76.81;101797.06;4876562;28;20046;-76
2021/07/12 09:13:13;;;;;;;4.18;2.95;;;25.00;99.90;;;23.73;76.09;101761.16;4866368;28;20044;-76
2021/07/12 09:15:40;;;;;;;5.22;2.90;;;24.40;99.90;;;23.27;79.05;101728.31;4885696;28;20102;-75
2021/07/12 09:18:42;;;;;;;7.93;2.72;;;24.20;99.90;;;23.40;77.57;101762.22;4969530;28;20148;-76
2021/07/12 09:22:03;;;;;;;4.53;3.22;;;24.30;99.90;;;23.42;77.42;101814.00;4887020;28;20043;-75
2021/07/12 09:25:41;;;;;;;3.58;2.70;;;24.40;99.90;;;23.65;76.58;101809.34;4874435;28;20138;-77
2021/07/12 09:29:12;;;;;;;3.38;2.78;;;24.90;99.90;;;24.60;73.39;101873.84;4876226;28;20040;-76
2021/07/12 09:32:40;;;;;;;3.72;2.58;;;25.40;99.90;;;25.15;73.24;101884.19;4870191;28;20167;-76
2021/07/12 09:35:53;;;;;;;3.00;2.38;;;25.80;99.90;;;25.21;70.75;101834.31;4873551;28;20043;-76
2021/07/12 09:39:28;;;;;;;3.33;2.67;;;25.90;99.90;;;25.17;68.93;102298.13;4881977;28;20040;-76
2021/07/12 09:42:54;;;;;;;2.90;2.60;;;26.10;99.90;;;24.60;71.39;101910.66;4868855;28;20431;-76
2021/07/12 09:45:51;;;;;;;3.70;2.53;;;25.30;99.90;;;24.46;70.82;101893.84;4888933;28;20412;-76
2021/07/12 09:49:01;;;;;;;3.08;2.55;;;25.40;99.90;;;24.89;74.09;101891.94;4906845;28;20036;-76
2021/07/12 09:52:02;;;;;;;3.00;2.58;;;25.90;99.90;;;25.22;69.19;101861.13;4837716;28;20044;-76
2021/07/12 09:55:21;;;;;;;3.95;2.42;;;26.60;99.90;;;26.18;66.52;101875.59;4899523;28;20517;-76
2021/07/12 09:58:41;;;;;;;2.67;2.33;;;26.50;99.90;;;25.72;69.41;101815.16;4869923;28;20039;-76
2021/07/12 10:06:12;;;;;;;2.38;2.10;;;27.20;99.90;;;26.98;63.92;101858.94;4898122;28;20031;-76
2021/07/12 10:10:13;;;;;;;8.88;2.30;;;27.60;99.90;;;25.77;65.21;101717.59;4950017;28;20060;-76
2021/07/12 10:14:05;;;;;;;3.53;2.50;;;26.70;99.90;;;26.06;66.64;101760.69;4878926;28;20039;-76
2021/07/12 10:17:10;;;;;;;3.70;2.40;;;26.60;99.90;;;25.58;66.26;102489.81;4880444;28;20062;-76
2021/07/12 10:20:33;;;;;;;2.30;2.10;;;26.20;99.90;;;25.40;68.98;102192.03;4900635;28;20424;-76
2021/07/12 10:24:00;;;;;;;4.35;2.38;;;26.20;99.90;;;25.01;70.49;102047.13;4907394;28;20388;-76
2021/07/12 10:27:35;;;;;;;4.45;2.30;;;25.70;99.90;;;24.66;72.41;102142.56;4902942;28;20549;-76
2021/07/12 10:31:02;;;;;;;4.88;2.42;;;25.40;99.90;;;24.65;72.38;101971.22;4870705;28;20097;-76
2021/07/12 10:34:29;;;;;;;5.90;2.63;;;25.30;99.90;;;24.03;73.64;101783.72;4864140;28;20102;-76
2021/07/12 10:37:56;;;;;;;5.07;2.90;;;25.30;99.90;;;24.53;73.87;101752.34;4872961;28;20512;-76
2021/07/12 10:41:34;;;;;;;3.35;2.38;;;25.40;99.90;;;24.79;72.62;101775.22;4899103;28;20135;-76
2021/07/12 10:44:28;;;;;;;6.00;2.60;;;25.60;99.90;;;24.64;71.52;101684.06;4878206;28;20098;-76
2021/07/12 10:48:18;;;;;;;2.88;2.58;;;25.50;99.90;;;24.76;73.66;101688.34;4878103;28;20446;-76